Portsmouth, NH

7:34 PM EDT on March 26, 2015 (GMT -0400)
Pease International Tradeport | | Change Station
CLOSE
Current Station
Airport
Location: Portsmouth,
Elevation: 102 ft
Nearby Weather Stations
Active Advisory: Dense Fog Advisory

Elev 102 ft 43.08 °N, 70.82 °W | Updated 6 minutes ago

Overcast
Overcast
45 °F
Feels Like 45 °F
N
2
Wind Variable Wind from NNE

Today
High -- | Low -- °F
--% Chance of Precip.
Yesterday
High -- | Low -- °F
Precip. -- in
6:36 AM 7:02 PM
Waxing Crescent, 47% visible
Pressure 29.63 in
Visibility 0.5 miles
Clouds Scattered Clouds 200 ft
Overcast 500 ft
Dew Point 45 °F
Humidity 100%
Rainfall 0.41 in
Snow Depth Not available.
UV 0 out of 12
Pollen 1.40 out of 12
Air Quality Not available.
Flu Activity Not available.
SPECI KPSM 262328Z 02002KT 1/2SM R34/3000FT -RA FG SCT002 OVC005 07/07 A2963 RMK AO2A

More Conditions Fewer Conditions

Pressure 29.63 in
Visibility 0.5 miles
Clouds Scattered Clouds 200 ft
Overcast 500 ft
Dew Point 45 °F
Humidity 100%
Rainfall 0.41 in
Snow Depth Not available.
UV 0 out of 12
Pollen 1.40 out of 12
Air Quality Not available.
Flu Activity Not available.
SPECI KPSM 262328Z 02002KT 1/2SM R34/3000FT -RA FG SCT002 OVC005 07/07 A2963 RMK AO2A

More Conditions Fewer Conditions

10-Day Weather Forecast

Almanac

Astronomy

Mar. 26, 2015 Rise Set
Actual Time
Civil Twilight
Nautical Twilight
Astronomical Twilight
Moon
Length of Visible Light
Length of Day
Tomorrow will be .
, % of the Moon is Illuminated

Today's Extremes

State Highs State Lows

Community

WunderPhotos

Upload Photos

1,808,638 photos uploaded!

WunderBlogs® & News

Nearby

Air Quality

  Air Quality AQ Index Pollutant
Not available.

Snow Depth

Station Depth Elevation

Earthquake Activity

City Distance Mag. Time & Date
Minimum magnitude displayed is 2.5.

Coastal Water Temperatures

Place Temperature

Stations

Nearby Weather Stations

Station Location Temp. Windchill Dew Point Humidity Wind Precip. Elev Updated Type
                   
Dense Fog Advisory
Statement as of 6:53 PM EDT on March 26, 2015

... Dense fog advisory in effect until 11 PM EDT this evening...

The National Weather Service in gray has issued a dense fog
advisory... which is in effect until 11 PM EDT this evening.

* Visibilities... one quarter mile or less at times.

* Timing... through late this evening.

* Impacts... travel will be difficult tonight.

Precautionary/preparedness actions...

A dense fog advisory means visibilities will frequently be
reduced to less than one quarter mile. If driving... slow down...
use your headlights... and leave plenty of distance ahead of you.